Time;durP1;ratioP1;P1;durP2;ratioP2;P2;SDS_P1;SDS_P2;PMS_P1;PMS_P2;Temp;Humidity;BMP_temperature;BMP_pressure;BME280_temperature;BME280_humidity;BME280_pressure;Samples;Min_cycle;Max_cycle;Signal;HPM_P1;HPM_P2
2022/09/15 00:00:23;;;;;;;13.88;8.30;;;14.70;99.90;;;;;;5034767;28;20037;-71
2022/09/15 00:02:49;;;;;;;11.90;8.20;;;14.70;99.90;;;;;;5035621;28;20443;-72
2022/09/15 00:05:17;;;;;;;16.38;8.88;;;14.70;99.90;;;;;;5035971;28;20033;-72
2022/09/15 00:07:43;;;;;;;12.75;9.05;;;14.70;99.90;;;;;;5035479;28;20497;-72
2022/09/15 00:10:09;;;;;;;15.13;9.25;;;14.60;99.90;;;;;;5017333;28;20067;-72
2022/09/15 00:12:35;;;;;;;14.68;9.00;;;14.70;99.90;;;;;;5035336;28;20521;-72
2022/09/15 00:15:01;;;;;;;11.68;8.05;;;14.60;99.90;;;;;;5035229;28;20029;-72
2022/09/15 00:17:27;;;;;;;13.27;8.45;;;14.60;99.90;;;;;;5034984;28;20041;-71
2022/09/15 00:19:53;;;;;;;14.23;8.23;;;14.60;99.90;;;;;;5035265;28;20061;-71
2022/09/15 00:22:19;;;;;;;12.90;8.25;;;14.60;99.90;;;;;;5035140;28;20030;-71
2022/09/15 00:24:48;;;;;;;14.35;8.07;;;14.50;99.90;;;;;;5034648;28;20075;-72
2022/09/15 00:27:14;;;;;;;;;;;14.60;99.90;;;;;;5035287;28;20108;-72
2022/09/15 00:29:40;;;;;;;14.73;8.27;;;14.50;99.90;;;;;;5035123;28;19935;-71
2022/09/15 00:32:06;;;;;;;16.88;9.23;;;14.50;99.90;;;;;;5034941;28;20037;-72
2022/09/15 00:34:33;;;;;;;12.88;8.93;;;14.40;99.90;;;;;;5034875;28;20079;-72
2022/09/15 00:36:59;;;;;;;13.40;8.20;;;14.40;99.90;;;;;;5034428;28;20029;-71
2022/09/15 00:39:25;;;;;;;13.35;8.70;;;14.40;99.90;;;;;;5034159;28;20060;-71
2022/09/15 00:41:51;;;;;;;12.25;8.75;;;14.40;99.90;;;;;;5016261;28;20040;-71
2022/09/15 00:44:35;;;;;;;13.13;8.48;;;14.40;99.90;;;;;;5035141;28;20083;-71
2022/09/15 00:47:03;;;;;;;14.15;8.63;;;14.30;99.90;;;;;;5016962;28;20036;-72
2022/09/15 00:49:33;;;;;;;11.23;8.27;;;14.30;99.90;;;;;;5034576;28;20036;-71
2022/09/15 00:52:33;;;;;;;14.90;9.63;;;14.30;99.90;;;;;;5034075;28;20033;-71
2022/09/15 00:55:01;;;;;;;11.88;8.27;;;14.30;99.90;;;;;;5012580;28;20102;-71
2022/09/15 00:57:34;;;;;;;12.18;8.35;;;14.30;99.90;;;;;;5034189;28;20444;-71
2022/09/15 01:00:05;;;;;;;18.50;9.65;;;14.30;99.90;;;;;;5033928;28;20558;-72
2022/09/15 01:02:33;;;;;;;16.52;9.75;;;14.20;99.90;;;;;;5016774;28;20375;-71
2022/09/15 01:05:03;;;;;;;11.98;8.40;;;14.20;99.90;;;;;;5034467;28;20112;-72
2022/09/15 01:07:35;;;;;;;15.18;9.30;;;14.20;99.90;;;;;;5016297;28;20413;-72
2022/09/15 01:10:14;;;;;;;17.58;10.00;;;14.20;99.90;;;;;;5016478;28;20033;-71
2022/09/15 01:12:40;;;;;;;;;;;14.20;99.90;;;;;;5016816;28;20025;-71
2022/09/15 01:15:07;;;;;;;16.98;8.95;;;14.10;99.90;;;;;;5034103;28;19960;-71
2022/09/15 01:17:59;;;;;;;13.38;9.70;;;14.10;99.90;;;;;;5034099;28;20124;-71
2022/09/15 01:20:41;;;;;;;14.85;8.85;;;14.10;99.90;;;;;;5030010;28;20502;-71
2022/09/15 01:23:10;;;;;;;14.38;9.00;;;14.10;99.90;;;;;;5016638;28;20037;-71
2022/09/15 01:25:57;;;;;;;18.08;10.20;;;14.10;99.90;;;;;;5033743;28;20532;-72
2022/09/15 01:28:29;;;;;;;15.18;9.52;;;14.10;99.90;;;;;;5033592;28;20133;-72
2022/09/15 01:31:21;;;;;;;14.88;9.77;;;14.00;99.90;;;;;;5034074;28;20386;-72
2022/09/15 01:34:14;;;;;;;17.15;9.70;;;14.10;99.90;;;;;;5034185;28;20041;-71
2022/09/15 01:36:56;;;;;;;14.48;10.13;;;14.10;99.90;;;;;;5033617;28;20427;-71
2022/09/15 01:39:31;;;;;;;15.50;9.48;;;14.00;99.90;;;;;;5033431;28;20377;-71
2022/09/15 01:42:01;;;;;;;13.93;10.38;;;13.90;99.90;;;;;;5033863;28;20037;-71
2022/09/15 01:44:53;;;;;;;14.48;9.60;;;13.90;99.90;;;;;;5033937;28;20029;-72
2022/09/15 01:47:21;;;;;;;18.98;9.75;;;13.90;99.90;;;;;;5014740;28;20033;-71
2022/09/15 01:50:04;;;;;;;14.15;8.77;;;13.80;99.90;;;;;;5031754;28;20053;-72
2022/09/15 01:52:30;;;;;;;13.27;9.23;;;13.80;99.90;;;;;;5031766;28;20060;-72
2022/09/15 01:55:01;;;;;;;15.50;8.45;;;13.80;99.90;;;;;;5031824;28;20043;-71
2022/09/15 01:57:27;;;;;;;13.13;8.57;;;13.80;99.90;;;;;;5031848;28;20407;-71
2022/09/15 01:59:55;;;;;;;15.52;9.32;;;13.80;99.90;;;;;;5033323;28;20033;-72
2022/09/15 02:02:38;;;;;;;13.77;9.48;;;13.90;99.90;;;;;;5033143;28;20437;-71
2022/09/15 02:05:20;;;;;;;16.40;9.73;;;13.90;99.90;;;;;;5032477;28;20030;-72
2022/09/15 02:08:23;;;;;;;16.55;10.27;;;13.80;99.90;;;;;;5031525;28;20025;-71
2022/09/15 02:11:07;;;;;;;12.63;9.50;;;13.80;99.90;;;;;;5032013;28;20126;-71
2022/09/15 02:14:10;;;;;;;16.08;10.02;;;13.90;99.90;;;;;;5031504;28;20033;-71
2022/09/15 02:16:40;;;;;;;14.95;9.85;;;13.80;99.90;;;;;;5013608;28;20040;-71
2022/09/15 02:19:14;;;;;;;14.48;10.38;;;13.80;99.90;;;;;;5031284;28;20042;-71
2022/09/15 02:21:58;;;;;;;15.23;10.13;;;13.90;99.90;;;;;;5031644;28;20040;-71
2022/09/15 02:24:31;;;;;;;13.15;9.38;;;13.90;99.90;;;;;;5014551;28;20030;-71
2022/09/15 02:26:58;;;;;;;17.88;11.30;;;13.90;99.90;;;;;;5031213;28;20094;-72
2022/09/15 02:29:28;;;;;;;15.20;10.18;;;13.90;99.90;;;;;;5013756;28;20072;-71
2022/09/15 02:31:58;;;;;;;16.45;10.57;;;13.90;99.90;;;;;;5031566;28;20076;-71
2022/09/15 02:34:39;;;;;;;13.40;9.55;;;13.90;99.90;;;;;;5031684;28;20025;-71
2022/09/15 02:37:07;;;;;;;14.27;9.45;;;13.90;99.90;;;;;;5013809;28;20041;-72
2022/09/15 02:39:37;;;;;;;15.60;9.85;;;13.90;99.90;;;;;;5031149;28;20113;-71
2022/09/15 02:42:03;;;;;;;14.77;10.18;;;13.90;99.90;;;;;;5031321;28;20026;-71
2022/09/15 02:44:29;;;;;;;14.38;9.77;;;13.90;99.90;;;;;;5031820;28;20017;-71
2022/09/15 02:46:57;;;;;;;16.63;11.43;;;13.90;99.90;;;;;;5031652;28;20029;-72
2022/09/15 02:49:23;;;;;;;17.88;11.32;;;14.00;99.90;;;;;;5013684;28;20544;-72
2022/09/15 02:51:49;;;;;;;18.55;9.90;;;13.90;99.90;;;;;;5031143;28;20033;-72
2022/09/15 02:54:15;;;;;;;14.77;9.95;;;13.90;99.90;;;;;;5031634;28;20025;-71
2022/09/15 02:56:41;;;;;;;14.65;9.60;;;13.90;99.90;;;;;;5032055;28;20029;-71
2022/09/15 02:59:08;;;;;;;14.70;8.88;;;13.80;99.90;;;;;;5014271;28;20083;-72
2022/09/15 03:01:34;;;;;;;16.55;10.63;;;13.90;99.90;;;;;;5032010;28;20500;-71
2022/09/15 03:04:02;;;;;;;16.02;10.90;;;13.90;99.90;;;;;;5033000;28;20029;-72
2022/09/15 03:06:33;;;;;;;18.73;10.53;;;14.00;99.90;;;;;;5035001;28;20033;-71
2022/09/15 03:09:02;;;;;;;15.98;10.18;;;14.00;99.90;;;;;;5034792;28;20134;-72
2022/09/15 03:11:29;;;;;;;13.45;10.02;;;14.10;99.90;;;;;;5017048;28;20034;-71
2022/09/15 03:13:57;;;;;;;13.68;9.00;;;14.10;99.90;;;;;;5045969;23;20413;-68
2022/09/15 03:16:24;;;;;;;15.00;9.75;;;14.10;99.90;;;;;;5033834;28;20069;-68
2022/09/15 03:18:52;;;;;;;15.77;10.68;;;14.10;99.90;;;;;;5033707;28;20026;-68
2022/09/15 03:21:18;;;;;;;16.35;10.13;;;14.20;99.90;;;;;;5033710;28;20029;-67
2022/09/15 03:23:44;;;;;;;16.42;11.02;;;14.20;99.90;;;;;;5033886;28;20060;-67
2022/09/15 03:26:11;;;;;;;14.60;10.10;;;14.20;99.90;;;;;;5033598;28;20029;-68
2022/09/15 03:28:38;;;;;;;16.23;11.00;;;14.30;99.90;;;;;;5033549;28;20036;-67
2022/09/15 03:31:05;;;;;;;14.15;9.73;;;14.30;99.90;;;;;;5033559;28;20239;-67
2022/09/15 03:33:31;;;;;;;14.43;9.88;;;14.30;99.90;;;;;;5032124;28;20103;-68
2022/09/15 03:35:57;;;;;;;15.95;10.07;;;14.40;99.90;;;;;;5033556;28;20025;-67
2022/09/15 03:38:23;;;;;;;14.38;10.45;;;14.40;99.90;;;;;;5033694;28;20469;-68
2022/09/15 03:41:08;;;;;;;16.33;10.35;;;14.40;99.90;;;;;;5033142;28;20029;-68
2022/09/15 03:43:35;;;;;;;15.73;9.98;;;14.40;99.90;;;;;;5033724;28;20025;-68
2022/09/15 03:46:02;;;;;;;15.77;10.20;;;14.40;99.90;;;;;;5033204;28;20091;-68
2022/09/15 03:48:31;;;;;;;16.80;10.93;;;14.40;99.90;;;;;;5033289;28;20486;-68
2022/09/15 03:50:57;;;;;;;14.10;9.90;;;14.40;99.90;;;;;;5033349;28;20036;-68
2022/09/15 03:53:23;;;;;;;16.20;10.02;;;14.40;99.90;;;;;;5033314;28;20120;-67
2022/09/15 03:55:49;;;;;;;15.63;10.55;;;14.40;99.90;;;;;;5033382;28;20061;-67
2022/09/15 03:58:17;;;;;;;19.20;10.68;;;14.50;99.90;;;;;;5033610;28;20036;-68
2022/09/15 04:00:44;;;;;;;15.60;9.77;;;14.50;99.90;;;;;;5032620;28;20025;-68
2022/09/15 04:03:11;;;;;;;18.10;11.07;;;14.50;99.90;;;;;;5033300;28;20025;-67
2022/09/15 04:05:38;;;;;;;16.65;11.40;;;14.50;99.90;;;;;;5033158;28;20497;-68
2022/09/15 04:08:04;;;;;;;13.40;9.95;;;14.50;99.90;;;;;;5033079;28;20039;-67
2022/09/15 04:10:32;;;;;;;16.52;10.68;;;14.50;99.90;;;;;;5032924;28;20033;-68
2022/09/15 04:12:57;;;;;;;15.57;10.98;;;14.50;99.90;;;;;;5032664;28;20124;-68
2022/09/15 04:15:24;;;;;;;18.23;11.55;;;14.50;99.90;;;;;;5033047;28;20104;-68
2022/09/15 04:17:49;;;;;;;18.77;11.13;;;14.40;99.90;;;;;;5032716;28;20021;-67
2022/09/15 04:20:16;;;;;;;15.43;10.10;;;14.50;99.90;;;;;;5032682;28;20113;-68
2022/09/15 04:22:43;;;;;;;19.60;10.00;;;14.40;99.90;;;;;;5032720;28;20060;-68
2022/09/15 04:25:09;;;;;;;20.92;11.07;;;14.40;99.90;;;;;;5032778;28;20036;-68
2022/09/15 04:27:37;;;;;;;13.38;9.93;;;14.40;99.90;;;;;;5032623;28;20104;-67
2022/09/15 04:30:05;;;;;;;16.30;9.82;;;14.40;99.90;;;;;;5032351;28;20049;-68
2022/09/15 04:32:31;;;;;;;14.80;9.07;;;14.50;99.90;;;;;;5032450;28;20084;-68
2022/09/15 04:34:58;;;;;;;15.02;9.32;;;14.50;99.90;;;;;;5032674;28;20030;-68
2022/09/15 04:37:23;;;;;;;18.38;10.48;;;14.60;99.90;;;;;;5032586;28;20132;-67
2022/09/15 04:39:49;;;;;;;14.50;9.60;;;14.60;99.90;;;;;;5032139;28;20108;-68
2022/09/15 04:42:15;;;;;;;14.82;9.32;;;14.60;99.90;;;;;;5032058;28;20064;-67
2022/09/15 04:44:41;;;;;;;15.70;11.10;;;14.60;99.90;;;;;;5032154;28;20025;-68
2022/09/15 04:47:07;;;;;;;16.15;10.75;;;14.60;99.90;;;;;;5032100;28;20083;-68
2022/09/15 04:49:34;;;;;;;18.55;11.73;;;14.60;99.90;;;;;;5031988;28;20062;-69
2022/09/15 04:52:00;;;;;;;17.95;10.52;;;14.60;99.90;;;;;;5031972;28;20216;-68
2022/09/15 04:54:26;;;;;;;16.75;10.57;;;14.60;99.90;;;;;;5030697;28;20060;-66
2022/09/15 04:56:51;;;;;;;15.65;9.90;;;14.60;99.90;;;;;;5032452;28;20490;-68
2022/09/15 04:59:18;;;;;;;15.68;10.20;;;14.60;99.90;;;;;;5031732;28;20033;-67
2022/09/15 05:01:45;;;;;;;15.80;10.75;;;14.60;99.90;;;;;;5031916;28;20033;-68
2022/09/15 05:04:11;;;;;;;20.20;11.52;;;14.60;99.90;;;;;;5032070;28;20516;-68
2022/09/15 05:06:37;;;;;;;20.50;11.48;;;14.60;99.90;;;;;;5030614;28;20033;-68
2022/09/15 05:09:06;;;;;;;19.25;11.18;;;14.60;99.90;;;;;;5032014;28;20037;-68
2022/09/15 05:11:32;;;;;;;17.13;10.73;;;14.60;99.90;;;;;;5031844;28;20033;-69
2022/09/15 05:13:58;;;;;;;16.00;10.82;;;14.60;99.90;;;;;;5031793;28;20072;-67
2022/09/15 05:16:27;;;;;;;17.60;10.98;;;14.60;99.90;;;;;;5031939;28;20043;-68
2022/09/15 05:18:58;;;;;;;17.20;11.02;;;14.70;99.90;;;;;;5031739;28;20033;-68
2022/09/15 05:21:24;;;;;;;16.98;10.75;;;14.70;99.90;;;;;;5031621;28;20037;-66
2022/09/15 05:23:51;;;;;;;15.27;10.88;;;14.70;99.90;;;;;;5031621;28;20497;-68
2022/09/15 05:26:22;;;;;;;19.85;12.25;;;14.80;99.90;;;;;;5030935;28;20080;-68
2022/09/15 05:28:49;;;;;;;22.48;12.80;;;14.80;99.90;;;;;;5046380;28;20033;-68
2022/09/15 05:31:19;;;;;;;16.70;11.20;;;14.80;99.90;;;;;;5031670;28;20513;-69
2022/09/15 05:33:47;;;;;;;20.38;12.35;;;14.70;99.90;;;;;;5031439;28;20033;-67
2022/09/15 05:36:14;;;;;;;17.55;11.55;;;14.70;99.90;;;;;;5031477;28;20033;-66
2022/09/15 05:38:40;;;;;;;20.42;11.98;;;14.70;99.90;;;;;;5031530;28;20446;-68
2022/09/15 05:41:09;;;;;;;22.48;12.98;;;14.70;99.90;;;;;;5031206;28;20486;-68
2022/09/15 05:43:36;;;;;;;;;;;14.70;99.90;;;;;;5031735;28;20085;-68
2022/09/15 05:46:03;;;;;;;19.27;11.75;;;14.70;99.90;;;;;;5031281;28;19940;-68
2022/09/15 05:48:30;;;;;;;19.00;10.83;;;14.70;99.90;;;;;;5031367;28;20057;-67
2022/09/15 05:50:57;;;;;;;15.57;10.40;;;14.70;99.90;;;;;;5031533;28;20792;-67
2022/09/15 05:53:24;;;;;;;19.23;11.93;;;14.70;99.90;;;;;;5031102;28;20113;-68
2022/09/15 05:55:57;;;;;;;16.90;11.63;;;14.80;99.90;;;;;;5030949;28;20075;-68
2022/09/15 05:58:24;;;;;;;16.60;10.85;;;14.80;99.90;;;;;;5031643;28;20057;-67
2022/09/15 06:00:52;;;;;;;22.40;11.80;;;14.80;99.90;;;;;;5030693;28;20041;-66
2022/09/15 06:03:19;;;;;;;17.23;11.20;;;14.80;99.90;;;;;;5031116;28;20026;-68
2022/09/15 06:05:45;;;;;;;20.30;11.05;;;14.80;99.90;;;;;;5030835;28;20030;-67
2022/09/15 06:08:11;;;;;;;21.83;12.27;;;14.80;99.90;;;;;;5031062;28;20025;-67
2022/09/15 06:10:38;;;;;;;18.58;11.65;;;14.80;99.90;;;;;;5030765;28;20025;-68
2022/09/15 06:13:05;;;;;;;18.85;11.38;;;14.90;99.90;;;;;;5030873;28;20065;-68
2022/09/15 06:15:31;;;;;;;17.08;10.70;;;14.90;99.90;;;;;;5030893;28;20457;-66
2022/09/15 06:17:57;;;;;;;21.02;11.10;;;14.90;99.90;;;;;;5030755;28;20505;-68
2022/09/15 06:20:24;;;;;;;23.77;12.77;;;14.90;99.90;;;;;;5030898;28;20461;-67
2022/09/15 06:22:51;;;;;;;17.92;10.98;;;14.90;99.90;;;;;;5031013;28;20037;-68
2022/09/15 06:25:17;;;;;;;20.35;11.70;;;14.90;99.90;;;;;;5030953;28;20096;-66
2022/09/15 06:27:43;;;;;;;18.83;11.45;;;15.00;99.90;;;;;;5029612;28;20471;-68
2022/09/15 06:30:09;;;;;;;23.33;12.13;;;15.00;99.90;;;;;;5030605;28;20029;-67
2022/09/15 06:32:35;;;;;;;22.58;14.80;;;15.00;99.90;;;;;;5031278;28;20501;-69
2022/09/15 06:35:06;;;;;;;22.27;13.98;;;15.00;99.90;;;;;;5030691;28;20029;-66
2022/09/15 06:37:33;;;;;;;18.50;12.35;;;15.10;99.90;;;;;;5031004;28;20036;-67
2022/09/15 06:39:59;;;;;;;22.55;13.35;;;15.10;99.90;;;;;;5034352;28;20033;-67
2022/09/15 06:42:25;;;;;;;21.13;14.10;;;15.10;99.90;;;;;;5034307;28;20060;-67
2022/09/15 06:44:52;;;;;;;22.20;13.15;;;15.10;99.90;;;;;;5033271;28;20033;-67
2022/09/15 06:47:18;;;;;;;22.80;14.10;;;15.20;99.90;;;;;;5034236;28;20033;-68
2022/09/15 06:49:44;;;;;;;21.48;14.05;;;15.20;99.90;;;;;;5034150;28;20056;-67
2022/09/15 06:52:10;;;;;;;24.90;14.30;;;15.20;99.90;;;;;;5034192;28;20486;-68
2022/09/15 06:54:36;;;;;;;22.98;12.88;;;15.20;99.90;;;;;;5034216;28;20128;-67
2022/09/15 06:57:03;;;;;;;26.83;14.73;;;15.20;99.90;;;;;;5034129;28;20052;-67
2022/09/15 06:59:29;;;;;;;23.35;14.52;;;15.30;99.90;;;;;;5033920;28;20041;-66
2022/09/15 07:01:55;;;;;;;21.88;14.02;;;15.20;99.90;;;;;;5033925;28;20490;-68
2022/09/15 07:04:21;;;;;;;23.15;14.25;;;15.30;99.90;;;;;;5034407;28;20057;-68
2022/09/15 07:06:47;;;;;;;23.23;14.23;;;15.30;99.90;;;;;;5034188;28;20029;-67
2022/09/15 07:09:13;;;;;;;22.52;13.73;;;15.30;99.90;;;;;;5033945;28;20032;-67
2022/09/15 07:11:39;;;;;;;26.20;14.93;;;15.40;99.90;;;;;;5033931;28;20029;-67
2022/09/15 07:14:05;;;;;;;23.02;13.43;;;15.40;99.90;;;;;;5033774;28;20124;-68
2022/09/15 07:16:31;;;;;;;21.65;13.60;;;15.50;99.90;;;;;;5033932;28;20049;-68
2022/09/15 07:19:00;;;;;;;23.63;13.35;;;15.50;99.90;;;;;;5033664;28;20493;-66
2022/09/15 07:21:26;;;;;;;24.23;14.73;;;15.60;99.90;;;;;;5032468;28;20477;-68
2022/09/15 07:23:55;;;;;;;22.15;13.50;;;15.70;99.90;;;;;;5033872;28;20418;-67
2022/09/15 07:26:23;;;;;;;23.73;15.43;;;15.70;99.90;;;;;;5033707;28;20057;-67
2022/09/15 07:28:59;;;;;;;23.23;13.75;;;15.80;99.90;;;;;;5033598;28;20083;-66
2022/09/15 07:31:27;;;;;;;22.83;14.48;;;15.80;99.90;;;;;;5033588;28;20061;-66
2022/09/15 07:33:53;;;;;;;20.48;13.35;;;15.90;99.90;;;;;;5033646;28;20037;-67
2022/09/15 07:36:19;;;;;;;23.80;13.70;;;15.90;99.90;;;;;;5033529;28;20037;-66
2022/09/15 07:38:46;;;;;;;22.50;13.40;;;16.00;99.90;;;;;;5033317;28;20060;-68
2022/09/15 07:41:15;;;;;;;25.83;12.45;;;16.00;99.90;;;;;;5033396;28;20037;-67
2022/09/15 07:43:48;;;;;;;20.08;11.55;;;16.00;99.90;;;;;;5033590;28;20030;-70
2022/09/15 07:46:15;;;;;;;19.77;10.82;;;16.10;99.90;;;;;;5033301;28;20033;-67
2022/09/15 07:48:45;;;;;;;17.17;9.90;;;16.10;99.90;;;;;;5032725;28;20509;-66
2022/09/15 07:51:11;;;;;;;17.35;9.90;;;16.10;99.90;;;;;;5033137;28;20061;-66
2022/09/15 07:53:37;;;;;;;19.85;10.25;;;16.10;99.90;;;;;;5033334;28;20040;-68
2022/09/15 07:56:03;;;;;;;14.77;9.00;;;16.20;99.90;;;;;;5033126;28;20033;-67
2022/09/15 07:58:31;;;;;;;17.08;8.50;;;16.20;99.90;;;;;;5031974;28;20033;-68
2022/09/15 08:01:01;;;;;;;14.48;7.90;;;16.20;99.90;;;;;;5032903;28;20052;-67
2022/09/15 08:03:27;;;;;;;18.02;7.93;;;16.20;99.90;;;;;;5048427;28;20033;-68
2022/09/15 08:05:57;;;;;;;13.80;7.63;;;16.20;99.90;;;;;;5033152;28;20030;-68
2022/09/15 08:08:23;;;;;;;14.13;7.18;;;16.30;99.90;;;;;;5031569;28;20057;-67
2022/09/15 08:10:49;;;;;;;11.57;6.72;;;16.30;99.90;;;;;;5032550;28;20032;-67
2022/09/15 08:13:15;;;;;;;14.35;5.53;;;16.30;99.90;;;;;;5032882;28;20406;-68
2022/09/15 08:15:42;;;;;;;10.48;4.82;;;16.30;99.90;;;;;;5032872;28;20029;-67
2022/09/15 08:18:08;;;;;;;12.90;4.75;;;16.40;99.90;;;;;;5032947;28;20053;-68
2022/09/15 08:20:38;;;;;;;13.43;4.25;;;16.40;99.90;;;;;;5032521;28;20049;-66
2022/09/15 08:23:04;;;;;;;8.95;4.22;;;16.40;99.90;;;;;;5032645;28;20112;-68
2022/09/15 08:25:30;;;;;;;13.68;6.00;;;16.50;99.90;;;;;;5032861;28;20405;-68
2022/09/15 08:27:58;;;;;;;12.85;4.82;;;16.50;99.90;;;;;;5032668;28;20029;-67
2022/09/15 08:30:25;;;;;;;10.38;4.53;;;16.50;99.90;;;;;;5032144;28;20112;-66
2022/09/15 08:32:51;;;;;;;9.90;4.25;;;16.50;99.90;;;;;;5032403;28;20044;-66
2022/09/15 08:35:18;;;;;;;11.50;4.57;;;16.50;99.90;;;;;;5032450;28;20546;-67
2022/09/15 08:37:45;;;;;;;10.63;4.10;;;16.60;99.90;;;;;;5032664;28;20072;-67
2022/09/15 08:40:21;;;;;;;13.90;5.07;;;16.60;99.90;;;;;;5031977;28;20474;-67
2022/09/15 08:42:52;;;;;;;12.88;5.50;;;16.60;99.90;;;;;;5032353;28;20064;-66
2022/09/15 08:45:28;;;;;;;8.95;4.10;;;16.70;99.90;;;;;;5032345;28;20482;-67
2022/09/15 08:47:58;;;;;;;9.93;3.33;;;16.70;99.90;;;;;;5032130;28;20032;-67
2022/09/15 08:50:43;;;;;;;10.73;2.90;;;16.80;99.90;;;;;;5031840;28;20037;-67
2022/09/15 08:53:21;;;;;;;9.30;3.63;;;16.70;99.90;;;;;;5032043;28;20079;-67
2022/09/15 08:55:59;;;;;;;13.43;3.55;;;16.80;99.90;;;;;;5031849;28;20033;-67
2022/09/15 08:58:28;;;;;;;9.80;3.38;;;16.80;99.90;;;;;;5031944;28;20061;-67
2022/09/15 09:01:03;;;;;;;10.23;3.60;;;16.80;99.90;;;;;;5030953;28;20041;-66
2022/09/15 09:03:58;;;;;;;11.25;4.78;;;16.80;99.90;;;;;;5031982;28;20029;-67
2022/09/15 09:06:38;;;;;;;12.35;5.38;;;16.90;99.90;;;;;;5035149;28;20116;-68
2022/09/15 09:09:23;;;;;;;10.98;5.95;;;16.90;99.90;;;;;;5031553;28;20030;-67
2022/09/15 09:12:02;;;;;;;7.55;2.65;;;17.00;99.90;;;;;;5031691;28;20057;-67
2022/09/15 09:14:44;;;;;;;10.45;2.97;;;17.00;99.90;;;;;;5031925;28;20033;-66
2022/09/15 09:17:38;;;;;;;13.68;5.00;;;17.00;99.90;;;;;;5032288;28;20545;-68
2022/09/15 09:20:32;;;;;;;10.90;4.45;;;17.10;99.90;;;;;;5032010;28;20508;-68
2022/09/15 09:23:02;;;;;;;9.00;3.90;;;17.10;99.90;;;;;;5031913;28;20029;-68
2022/09/15 09:25:28;;;;;;;12.73;4.05;;;17.10;99.90;;;;;;5031839;28;20033;-68
2022/09/15 09:27:57;;;;;;;7.82;3.20;;;17.10;99.90;;;;;;5031528;28;20398;-68
2022/09/15 09:30:24;;;;;;;8.17;3.27;;;17.20;99.90;;;;;;5031722;28;20033;-68
2022/09/15 09:33:12;;;;;;;9.02;2.55;;;17.20;99.90;;;;;;5031477;28;20036;-66
2022/09/15 09:35:45;;;;;;;10.40;2.92;;;17.20;99.90;;;;;;5031425;28;20394;-68
2022/09/15 09:38:18;;;;;;;8.55;2.53;;;17.20;99.90;;;;;;5031406;28;20478;-67
2022/09/15 09:40:44;;;;;;;6.50;2.40;;;17.20;99.90;;;;;;5030993;28;20410;-67
2022/09/15 09:43:10;;;;;;;8.85;2.78;;;17.30;99.90;;;;;;5031191;28;20037;-66
2022/09/15 09:45:36;;;;;;;7.05;2.42;;;17.30;99.90;;;;;;5031483;28;20029;-66
2022/09/15 09:48:19;;;;;;;6.22;2.28;;;17.40;99.90;;;;;;5031812;28;20437;-68
2022/09/15 09:50:45;;;;;;;8.45;2.90;;;17.40;99.90;;;;;;5030915;28;20485;-66
2022/09/15 09:53:25;;;;;;;9.88;3.70;;;17.40;99.90;;;;;;5031308;28;20079;-67
2022/09/15 09:56:14;;;;;;;7.38;2.75;;;17.50;99.90;;;;;;5031230;28;20457;-67
2022/09/15 09:58:40;;;;;;;11.45;3.25;;;17.50;99.90;;;;;;5030985;28;20049;-68
2022/09/15 10:01:12;;;;;;;7.60;2.00;;;17.50;99.90;;;;;;5029569;28;20025;-67
2022/09/15 10:03:38;;;;;;;8.73;2.63;;;17.40;99.90;;;;;;5031249;28;20459;-68
2022/09/15 10:06:10;;;;;;;7.50;2.17;;;17.40;99.90;;;;;;5031554;28;20032;-67
2022/09/15 10:08:37;;;;;;;8.05;2.30;;;17.40;99.90;;;;;;5030805;28;20036;-68
2022/09/15 10:11:06;;;;;;;11.52;2.53;;;17.40;99.90;;;;;;5031260;28;20033;-68
2022/09/15 10:13:34;;;;;;;7.68;2.33;;;17.40;99.90;;;;;;5033943;28;20371;-68
2022/09/15 10:16:04;;;;;;;8.70;2.20;;;17.30;99.90;;;;;;5035199;28;20501;-69
2022/09/15 10:18:30;;;;;;;7.47;2.30;;;17.30;99.90;;;;;;5034906;28;20037;-68
2022/09/15 10:20:56;;;;;;;12.52;2.47;;;17.40;99.90;;;;;;5034861;28;20049;-68
2022/09/15 10:23:31;;;;;;;9.27;2.40;;;17.30;99.90;;;;;;5035258;28;20057;-69
2022/09/15 10:26:19;;;;;;;9.10;1.92;;;17.40;99.90;;;;;;5034016;28;20033;-68
2022/09/15 10:29:11;;;;;;;9.50;3.47;;;17.40;99.90;;;;;;5034721;28;20040;-67
2022/09/15 10:31:37;;;;;;;11.10;3.38;;;17.40;99.90;;;;;;5034524;28;20033;-68
2022/09/15 10:34:29;;;;;;;11.00;4.60;;;17.50;99.60;;;;;;5034907;28;20042;-68
2022/09/15 10:37:18;;;;;;;5.80;1.30;;;17.60;99.90;;;;;;5028041;28;20128;-68
2022/09/15 10:40:07;;;;;;;;;;;17.60;99.90;;;;;;5035463;28;20471;-69
2022/09/15 10:43:01;;;;;;;7.03;2.20;;;17.60;99.70;;;;;;5029026;28;19913;-69
2022/09/15 10:45:30;;;;;;;6.72;1.60;;;17.60;99.90;;;;;;5034407;28;20022;-68
2022/09/15 10:48:27;;;;;;;6.82;2.42;;;17.60;99.90;;;;;;5034676;28;20342;-67
2022/09/15 10:51:35;;;;;;;4.82;1.63;;;17.50;99.90;;;;;;5034337;28;20065;-68
2022/09/15 10:54:40;;;;;;;8.83;1.50;;;17.50;99.90;;;;;;5034376;28;20025;-68
2022/09/15 10:57:11;;;;;;;3.40;1.50;;;17.40;99.90;;;;;;5032957;28;20029;-68
2022/09/15 10:59:46;;;;;;;8.13;2.35;;;17.30;99.90;;;;;;5033949;28;20036;-68
2022/09/15 11:02:47;;;;;;;9.63;3.20;;;17.30;99.90;;;;;;5033785;28;20043;-68
2022/09/15 11:05:35;;;;;;;10.40;3.00;;;17.30;99.90;;;;;;5034243;28;20036;-68
2022/09/15 11:08:32;;;;;;;9.82;2.80;;;17.30;99.90;;;;;;5034363;28;20021;-69
2022/09/15 11:11:17;;;;;;;8.50;3.10;;;17.20;99.90;;;;;;5033936;28;20021;-68
2022/09/15 11:14:20;;;;;;;8.40;2.47;;;17.20;99.90;;;;;;5033874;28;20033;-67
2022/09/15 11:17:18;;;;;;;7.50;2.53;;;17.10;99.90;;;;;;5033874;28;20065;-67
2022/09/15 11:19:57;;;;;;;10.43;2.75;;;17.10;99.90;;;;;;5033914;28;20108;-67
2022/09/15 11:22:31;;;;;;;8.27;2.78;;;17.10;99.90;;;;;;5032544;28;20489;-68
2022/09/15 11:25:01;;;;;;;11.32;2.90;;;17.10;99.90;;;;;;5033242;28;20021;-69
2022/09/15 11:27:43;;;;;;;8.20;2.35;;;17.00;99.90;;;;;;5034152;28;20032;-68
2022/09/15 11:30:17;;;;;;;5.65;2.05;;;17.00;99.90;;;;;;5033737;28;20025;-68
2022/09/15 11:33:00;;;;;;;6.88;2.00;;;17.10;99.90;;;;;;5033683;28;20033;-67
2022/09/15 11:35:30;;;;;;;6.97;2.13;;;17.00;99.90;;;;;;5033724;28;20502;-68
2022/09/15 11:38:25;;;;;;;9.18;1.90;;;17.00;99.90;;;;;;5033390;28;20120;-67
2022/09/15 11:41:15;;;;;;;9.70;2.00;;;16.90;99.90;;;;;;5033109;28;20033;-68
2022/09/15 11:44:04;;;;;;;6.60;1.83;;;16.90;99.90;;;;;;5033439;28;20033;-70
2022/09/15 11:47:01;;;;;;;7.30;1.88;;;17.00;99.90;;;;;;5032105;28;20100;-67
2022/09/15 11:49:35;;;;;;;9.13;1.70;;;17.00;99.90;;;;;;5033086;28;20025;-67
2022/09/15 11:52:17;;;;;;;7.45;2.03;;;17.00;99.90;;;;;;5033361;28;20037;-68
2022/09/15 11:55:05;;;;;;;11.02;2.92;;;17.10;99.90;;;;;;5033514;28;20041;-69
2022/09/15 11:57:40;;;;;;;9.70;2.63;;;17.10;99.90;;;;;;5033462;28;20112;-67
2022/09/15 12:00:12;;;;;;;12.55;3.05;;;17.20;99.90;;;;;;5032896;28;20272;-69
2022/09/15 12:03:05;;;;;;;9.75;2.95;;;17.20;99.90;;;;;;5033102;28;20029;-69
2022/09/15 12:05:38;;;;;;;9.70;2.70;;;17.20;99.90;;;;;;5033179;28;20405;-68
2022/09/15 12:08:18;;;;;;;8.20;2.78;;;17.20;99.90;;;;;;5032961;28;20226;-68
2022/09/15 12:10:51;;;;;;;8.40;2.80;;;17.20;99.90;;;;;;5032961;28;20025;-67
2022/09/15 12:13:19;;;;;;;8.65;2.45;;;17.20;99.90;;;;;;5032945;28;20033;-69
2022/09/15 12:15:46;;;;;;;9.50;3.05;;;17.30;99.90;;;;;;5032790;28;20137;-68
2022/09/15 12:18:37;;;;;;;12.45;2.75;;;17.30;99.90;;;;;;5032899;28;20562;-68
2022/09/15 12:21:22;;;;;;;9.40;2.97;;;17.30;99.90;;;;;;5031459;28;20371;-68
2022/09/15 12:24:36;;;;;;;9.10;3.38;;;17.30;99.90;;;;;;5032809;28;20030;-68
2022/09/15 12:27:03;;;;;;;12.32;4.63;;;17.30;99.90;;;;;;5027403;28;20042;-67
2022/09/15 12:29:38;;;;;;;10.98;4.07;;;17.20;99.90;;;;;;5032239;28;20486;-68
2022/09/15 12:32:25;;;;;;;9.38;2.75;;;17.30;99.90;;;;;;5032571;28;20075;-68
2022/09/15 12:35:24;;;;;;;6.13;1.70;;;17.20;99.90;;;;;;5032742;28;20041;-68
2022/09/15 12:37:56;;;;;;;5.55;1.88;;;17.20;99.90;;;;;;5032601;28;20033;-68
2022/09/15 12:40:36;;;;;;;11.02;1.77;;;17.20;99.90;;;;;;5032691;28;20029;-69
2022/09/15 12:43:09;;;;;;;7.55;2.17;;;17.10;99.90;;;;;;5032305;28;20025;-67
2022/09/15 12:45:37;;;;;;;8.05;2.95;;;17.10;99.90;;;;;;5032450;28;20033;-69
2022/09/15 12:48:10;;;;;;;8.73;2.63;;;17.10;99.90;;;;;;5030941;28;20079;-67
2022/09/15 12:50:41;;;;;;;7.90;2.10;;;17.10;99.90;;;;;;5030693;28;20025;-67
2022/09/15 12:53:20;;;;;;;11.32;1.92;;;17.00;99.90;;;;;;5032680;28;20087;-68
2022/09/15 12:55:54;;;;;;;5.43;1.65;;;17.00;99.90;;;;;;5032098;28;20038;-67
2022/09/15 12:58:25;;;;;;;7.10;2.25;;;17.10;99.90;;;;;;5032258;28;20037;-68
2022/09/15 13:01:17;;;;;;;10.25;2.60;;;17.00;99.90;;;;;;5031969;28;20091;-70